createdAt,value
2023-01-13T00:01:30.941Z,0.80
2023-01-13T00:03:57.959Z,1.10
2023-01-13T00:06:26.096Z,1.60
2023-01-13T00:08:54.535Z,1.07
2023-01-13T00:11:22.765Z,1.20
2023-01-13T00:13:49.824Z,1.77
2023-01-13T00:16:21.299Z,2.13
2023-01-13T00:18:48.968Z,1.40
2023-01-13T00:21:27.872Z,1.40
2023-01-13T00:23:57.849Z,1.97
2023-01-13T00:26:27.997Z,1.47
2023-01-13T00:29:02.626Z,1.93
2023-01-13T00:31:33.264Z,1.30
2023-01-13T00:34:01.674Z,1.50
2023-01-13T00:36:30.792Z,1.57
2023-01-13T00:38:58.360Z,1.80
2023-01-13T00:41:48.934Z,1.80
2023-01-13T00:44:18.798Z,1.70
2023-01-13T00:46:48.052Z,1.57
2023-01-13T00:49:15.014Z,1.93
2023-01-13T00:51:42.222Z,1.70
2023-01-13T00:54:11.268Z,1.67
2023-01-13T00:56:41.391Z,1.90
2023-01-13T00:59:13.952Z,1.60
2023-01-13T01:01:42.442Z,3.00
2023-01-13T01:04:12.213Z,1.43
2023-01-13T01:06:42.101Z,0.60
2023-01-13T01:09:13.364Z,0.87
2023-01-13T01:11:40.835Z,0.53
2023-01-13T01:14:16.355Z,0.50
2023-01-13T01:16:45.884Z,0.73
2023-01-13T01:19:12.804Z,7.03
2023-01-13T01:21:42.757Z,0.63
2023-01-13T01:24:09.999Z,0.60
2023-01-13T01:26:37.061Z,0.60
2023-01-13T01:29:04.292Z,0.87
2023-01-13T01:31:33.448Z,1.33
2023-01-13T01:34:03.179Z,2.73
2023-01-13T01:36:34.856Z,0.80
2023-01-13T01:39:04.984Z,0.60
2023-01-13T01:41:34.312Z,1.17
2023-01-13T01:44:44.564Z,0.60
2023-01-13T01:47:17.666Z,1.37
2023-01-13T01:49:48.191Z,0.83
2023-01-13T01:52:34.366Z,0.97
2023-01-13T01:55:22.693Z,2.53
2023-01-13T01:57:57.554Z,1.47
2023-01-13T02:00:29.015Z,2.60
2023-01-13T02:02:57.339Z,2.83
2023-01-13T02:05:27.223Z,2.10
2023-01-13T02:07:57.397Z,3.70
2023-01-13T02:10:29.587Z,2.87
2023-01-13T02:13:01.832Z,3.30
2023-01-13T02:16:19.072Z,2.00
2023-01-13T02:19:13.698Z,3.03
2023-01-13T02:22:28.540Z,2.20
2023-01-13T02:25:32.786Z,3.73
2023-01-13T02:28:36.242Z,12.67
2023-01-13T02:31:29.249Z,4.20
2023-01-13T02:34:16.631Z,4.50
2023-01-13T02:37:01.437Z,5.93
2023-01-13T02:40:00.026Z,9.67
2023-01-13T02:43:07.793Z,8.00
2023-01-13T02:45:44.479Z,8.83
2023-01-13T02:48:16.564Z,2.87
2023-01-13T02:50:58.606Z,7.73
2023-01-13T02:53:44.760Z,7.47
2023-01-13T02:56:16.927Z,3.47
2023-01-13T02:58:46.288Z,7.73
2023-01-13T03:01:13.513Z,5.17
2023-01-13T03:03:44.506Z,9.33
2023-01-13T03:07:13.552Z,12.10
2023-01-13T03:09:49.780Z,4.37
2023-01-13T03:12:48.514Z,6.40
2023-01-13T03:15:44.981Z,8.70
2023-01-13T03:18:31.858Z,10.90
2023-01-13T03:21:01.446Z,16.97
2023-01-13T03:23:38.542Z,10.80
2023-01-13T03:26:18.994Z,8.60
2023-01-13T03:28:53.837Z,9.30
2023-01-13T03:31:30.673Z,6.43
2023-01-13T03:34:07.646Z,11.67
2023-01-13T03:36:37.714Z,11.90
2023-01-13T03:39:14.783Z,17.30
2023-01-13T03:41:57.212Z,16.57
2023-01-13T03:44:34.612Z,9.20
2023-01-13T03:47:27.970Z,6.47
2023-01-13T03:50:23.019Z,9.53
2023-01-13T03:53:14.264Z,17.70
2023-01-13T03:55:49.069Z,9.73
2023-01-13T03:58:25.186Z,7.63
2023-01-13T04:01:21.880Z,17.93
2023-01-13T04:03:52.057Z,13.47
2023-01-13T04:06:55.734Z,5.37
2023-01-13T04:09:33.798Z,17.17
2023-01-13T04:12:25.192Z,17.47
2023-01-13T04:14:55.698Z,17.33
2023-01-13T04:17:24.993Z,17.27
2023-01-13T04:19:51.832Z,10.90
2023-01-13T04:22:18.683Z,14.80
2023-01-13T04:24:48.267Z,16.00
2023-01-13T04:27:18.099Z,11.20
2023-01-13T04:29:47.388Z,13.00
2023-01-13T04:32:16.788Z,9.23
2023-01-13T04:34:45.734Z,13.07
2023-01-13T04:37:15.126Z,10.43
2023-01-13T04:39:41.957Z,13.83
2023-01-13T04:42:08.763Z,18.43
2023-01-13T04:44:37.689Z,12.93
2023-01-13T04:47:07.234Z,7.37
2023-01-13T04:49:37.181Z,16.20
2023-01-13T04:52:07.004Z,17.77
2023-01-13T04:54:34.008Z,8.63
2023-01-13T04:57:01.010Z,14.97
2023-01-13T04:59:27.869Z,16.20
2023-01-13T05:01:56.930Z,19.97
2023-01-13T05:04:26.401Z,13.17
2023-01-13T05:06:53.272Z,14.93
2023-01-13T05:09:20.237Z,25.23
2023-01-13T05:12:07.875Z,15.50
2023-01-13T05:14:53.115Z,9.03
2023-01-13T05:17:27.266Z,15.83
2023-01-13T05:19:54.201Z,27.13
2023-01-13T05:22:39.363Z,17.73
2023-01-13T05:25:25.054Z,8.30
2023-01-13T05:28:03.626Z,6.73
2023-01-13T05:30:37.831Z,10.90
2023-01-13T05:33:07.581Z,10.63
2023-01-13T05:35:34.422Z,14.20
2023-01-13T05:38:01.264Z,13.23
2023-01-13T05:40:46.588Z,19.20
2023-01-13T05:43:21.081Z,10.90
2023-01-13T05:45:48.010Z,19.53
2023-01-13T05:48:17.929Z,10.90
2023-01-13T05:50:46.238Z,9.87
2023-01-13T05:53:13.711Z,37.73
2023-01-13T05:55:42.057Z,14.53
2023-01-13T05:58:11.607Z,18.33
2023-01-13T06:00:42.097Z,15.00
2023-01-13T06:03:12.072Z,19.40
2023-01-13T06:05:42.052Z,11.57
2023-01-13T06:08:09.593Z,10.50
2023-01-13T06:10:36.901Z,12.23
2023-01-13T06:13:04.934Z,13.87
2023-01-13T06:15:35.185Z,20.00
2023-01-13T06:18:05.994Z,17.17
2023-01-13T06:20:35.486Z,19.37
2023-01-13T06:23:03.339Z,10.20
2023-01-13T06:25:55.117Z,11.30
2023-01-13T06:28:21.968Z,22.43
2023-01-13T06:30:56.385Z,11.43
2023-01-13T06:33:32.243Z,20.93
2023-01-13T06:36:07.079Z,22.47
2023-01-13T06:38:37.739Z,12.83
2023-01-13T06:41:09.765Z,22.23
2023-01-13T06:43:38.504Z,17.33
2023-01-13T06:46:05.644Z,17.33
2023-01-13T06:48:35.147Z,17.30
2023-01-13T06:51:04.569Z,18.47
2023-01-13T06:53:31.712Z,22.50
2023-01-13T06:55:58.550Z,29.87
2023-01-13T06:58:25.502Z,20.37
2023-01-13T07:00:55.090Z,20.97
2023-01-13T07:03:21.960Z,21.83
2023-01-13T07:05:56.210Z,16.47
2023-01-13T07:08:24.019Z,18.80
2023-01-13T07:10:53.222Z,21.57
2023-01-13T07:13:45.978Z,15.20
2023-01-13T07:16:13.141Z,15.17
2023-01-13T07:18:42.231Z,20.67
2023-01-13T07:21:13.148Z,20.40
2023-01-13T07:23:41.878Z,22.77
2023-01-13T07:26:11.526Z,23.97
2023-01-13T07:28:41.490Z,17.70
2023-01-13T07:31:21.097Z,14.87
2023-01-13T07:33:48.764Z,14.87
2023-01-13T07:36:15.790Z,16.60
2023-01-13T07:38:45.119Z,13.23
2023-01-13T07:41:34.085Z,24.97
2023-01-13T07:44:04.852Z,26.07
2023-01-13T07:46:34.405Z,12.73
2023-01-13T07:49:01.382Z,30.67
2023-01-13T07:51:28.408Z,19.00
2023-01-13T07:53:55.276Z,22.30
2023-01-13T07:56:22.241Z,26.83
2023-01-13T07:58:52.945Z,25.00
2023-01-13T08:01:23.421Z,22.73
2023-01-13T08:03:50.326Z,24.17
2023-01-13T08:06:17.330Z,26.57
2023-01-13T08:08:46.470Z,20.40
2023-01-13T08:11:13.365Z,28.83
2023-01-13T08:13:40.196Z,28.00
2023-01-13T08:16:10.709Z,16.90
2023-01-13T08:18:38.584Z,22.37
2023-01-13T08:21:12.781Z,19.90
2023-01-13T08:23:43.897Z,30.57
2023-01-13T08:26:17.788Z,16.97
2023-01-13T08:28:46.079Z,20.30
2023-01-13T08:31:16.906Z,15.97
2023-01-13T08:33:44.087Z,26.73
2023-01-13T08:36:12.653Z,18.00
2023-01-13T08:38:44.618Z,36.87
2023-01-13T08:41:14.534Z,33.27
2023-01-13T08:43:41.490Z,22.70
2023-01-13T08:46:15.447Z,22.97
2023-01-13T08:48:42.324Z,26.00
2023-01-13T08:51:10.304Z,21.23
2023-01-13T08:53:39.379Z,23.97
2023-01-13T08:56:13.216Z,17.60
2023-01-13T08:58:40.961Z,14.80
2023-01-13T09:01:08.738Z,10.00
2023-01-13T09:03:35.686Z,21.47
2023-01-13T09:06:02.903Z,17.97
2023-01-13T09:08:29.872Z,26.40
2023-01-13T09:10:57.558Z,20.53
2023-01-13T09:13:24.449Z,22.50
2023-01-13T09:15:52.510Z,26.17
2023-01-13T09:18:19.381Z,15.83
2023-01-13T09:20:48.867Z,18.33
2023-01-13T09:23:15.717Z,20.50
2023-01-13T09:25:45.700Z,9.70
2023-01-13T09:28:12.602Z,22.43
2023-01-13T09:30:39.595Z,14.93
2023-01-13T09:33:24.638Z,14.37
2023-01-13T09:35:56.215Z,22.20
2023-01-13T09:38:23.232Z,16.23
2023-01-13T09:40:50.143Z,19.37
2023-01-13T09:43:39.580Z,16.57
2023-01-13T09:46:41.598Z,12.90
2023-01-13T09:49:47.000Z,17.40
2023-01-13T09:52:21.159Z,21.73
2023-01-13T09:55:06.360Z,10.67
2023-01-13T09:57:40.030Z,9.77
2023-01-13T10:00:29.310Z,24.83
2023-01-13T10:03:19.727Z,21.30
2023-01-13T10:06:04.524Z,19.53
2023-01-13T10:08:57.741Z,4.53
2023-01-13T10:11:52.198Z,9.83
2023-01-13T10:14:21.876Z,11.93
2023-01-13T10:17:12.887Z,15.80
2023-01-13T10:19:52.979Z,13.60
2023-01-13T10:22:41.396Z,19.70
2023-01-13T10:25:22.517Z,12.87
2023-01-13T10:27:54.485Z,17.40
2023-01-13T10:30:34.123Z,6.17
2023-01-13T10:33:10.676Z,10.33
2023-01-13T10:36:18.330Z,12.93
2023-01-13T10:38:48.998Z,15.53
2023-01-13T10:41:15.766Z,12.30
2023-01-13T10:43:57.817Z,14.70
2023-01-13T10:46:27.823Z,17.73
2023-01-13T10:49:04.460Z,14.87
2023-01-13T10:51:40.556Z,18.63
2023-01-13T10:54:15.818Z,12.37
2023-01-13T10:56:46.810Z,12.90
2023-01-13T10:59:29.728Z,13.13
2023-01-13T11:02:29.331Z,13.07
2023-01-13T11:05:00.495Z,10.77
2023-01-13T11:07:38.506Z,15.10
2023-01-13T11:10:27.278Z,15.97
2023-01-13T11:13:00.107Z,14.67
2023-01-13T11:15:54.823Z,17.83
2023-01-13T11:18:24.706Z,8.03
2023-01-13T11:20:53.269Z,5.80
2023-01-13T11:23:32.727Z,12.87
2023-01-13T11:26:39.711Z,18.00
2023-01-13T11:29:20.506Z,9.10
2023-01-13T11:31:52.833Z,12.73
2023-01-13T11:34:32.571Z,12.43
2023-01-13T11:37:05.075Z,8.20
2023-01-13T11:40:14.959Z,9.83
2023-01-13T11:43:12.345Z,7.23
2023-01-13T11:45:46.559Z,7.30
2023-01-13T11:48:20.885Z,17.43
2023-01-13T11:51:11.713Z,9.30
2023-01-13T11:54:02.639Z,10.50
2023-01-13T11:57:20.859Z,13.70
2023-01-13T11:59:59.220Z,11.70
2023-01-13T12:03:17.104Z,10.13
2023-01-13T12:06:10.738Z,22.63
2023-01-13T12:09:12.679Z,8.30
2023-01-13T12:12:13.246Z,17.00
2023-01-13T12:15:04.625Z,10.80
2023-01-13T12:17:56.224Z,6.93
2023-01-13T12:21:15.407Z,9.70
2023-01-13T12:23:47.552Z,14.80
2023-01-13T12:26:16.813Z,15.60
2023-01-13T12:28:56.622Z,15.30
2023-01-13T12:31:24.971Z,5.50
2023-01-13T12:34:02.811Z,5.60
2023-01-13T12:36:55.277Z,15.70
2023-01-13T12:39:51.935Z,12.03
2023-01-13T12:43:25.575Z,9.53
2023-01-13T12:45:52.562Z,13.43
2023-01-13T12:49:09.932Z,13.57
2023-01-13T12:51:57.014Z,14.40
2023-01-13T12:54:43.376Z,13.87
2023-01-13T12:57:33.101Z,12.00
2023-01-13T12:59:59.881Z,6.70
2023-01-13T13:02:38.801Z,15.47
2023-01-13T13:05:14.551Z,8.90
2023-01-13T13:07:52.346Z,9.70
2023-01-13T13:10:45.478Z,12.00
2023-01-13T13:13:43.742Z,5.93
2023-01-13T13:16:25.758Z,8.00
2023-01-13T13:19:18.020Z,17.70
2023-01-13T13:22:12.928Z,7.10
2023-01-13T13:24:48.998Z,9.63
2023-01-13T13:27:41.527Z,13.63
2023-01-13T13:30:36.609Z,14.17
2023-01-13T13:33:22.425Z,29.30
2023-01-13T13:36:33.306Z,5.77
2023-01-13T13:39:42.739Z,8.43
2023-01-13T13:42:40.800Z,14.50
2023-01-13T13:45:42.682Z,9.73
2023-01-13T13:48:30.834Z,13.17
2023-01-13T13:51:05.849Z,9.40
2023-01-13T13:53:40.353Z,22.50
2023-01-13T13:56:20.826Z,13.40
2023-01-13T13:58:52.287Z,9.60
2023-01-13T14:01:32.597Z,12.10
2023-01-13T14:04:30.044Z,24.10
2023-01-13T14:06:59.613Z,22.60
2023-01-13T14:09:39.409Z,10.97
2023-01-13T14:12:38.275Z,12.10
2023-01-13T14:15:08.085Z,15.13
2023-01-13T14:17:35.222Z,9.80
2023-01-13T14:20:08.179Z,17.83
2023-01-13T14:22:37.303Z,8.93
2023-01-13T14:25:40.158Z,4.77
2023-01-13T14:28:20.624Z,8.13
2023-01-13T14:30:49.842Z,16.83
2023-01-13T14:33:23.201Z,9.87
2023-01-13T14:36:33.252Z,11.53
2023-01-13T14:39:03.098Z,14.23
2023-01-13T14:41:35.136Z,7.30
2023-01-13T14:44:12.771Z,6.57
2023-01-13T14:46:45.167Z,7.70
2023-01-13T14:49:51.801Z,6.63
2023-01-13T14:52:27.871Z,9.10
2023-01-13T14:55:08.224Z,11.37
2023-01-13T14:57:38.013Z,12.00
2023-01-13T15:00:16.055Z,6.73
2023-01-13T15:02:58.290Z,12.30
2023-01-13T15:05:34.845Z,12.30
2023-01-13T15:08:26.629Z,18.63
2023-01-13T15:11:00.489Z,5.37
2023-01-13T15:13:44.058Z,15.10
2023-01-13T15:16:26.457Z,15.70
2023-01-13T15:18:57.935Z,7.80
2023-01-13T15:21:27.331Z,13.30
2023-01-13T15:23:56.424Z,7.53
2023-01-13T15:26:30.617Z,12.90
2023-01-13T15:29:02.074Z,6.93
2023-01-13T15:31:31.426Z,12.50
2023-01-13T15:34:00.774Z,9.53
2023-01-13T15:36:31.677Z,6.10
2023-01-13T15:39:02.129Z,10.50
2023-01-13T15:41:47.493Z,7.20
2023-01-13T15:44:36.436Z,13.27
2023-01-13T15:47:07.866Z,4.63
2023-01-13T15:49:40.523Z,12.67
2023-01-13T15:52:30.212Z,4.80
2023-01-13T15:54:57.057Z,4.50
2023-01-13T15:57:33.333Z,8.20
2023-01-13T16:00:14.920Z,7.83
2023-01-13T16:02:41.977Z,21.87
2023-01-13T16:05:08.843Z,4.60
2023-01-13T16:07:35.840Z,9.73
2023-01-13T16:10:11.910Z,8.40
2023-01-13T16:12:41.902Z,7.23
2023-01-13T16:15:13.718Z,13.47
2023-01-13T16:17:41.235Z,7.80
2023-01-13T16:20:17.335Z,7.20
2023-01-13T16:22:45.402Z,4.73
2023-01-13T16:25:22.305Z,6.90
2023-01-13T16:27:50.214Z,3.40
2023-01-13T16:30:33.889Z,10.50
2023-01-13T16:33:00.855Z,5.17
2023-01-13T16:35:28.945Z,5.67
2023-01-13T16:37:58.429Z,2.63
2023-01-13T16:40:38.328Z,8.20
2023-01-13T16:43:06.743Z,6.80
2023-01-13T16:45:34.244Z,10.23
2023-01-13T16:48:01.252Z,2.27
2023-01-13T16:50:42.156Z,7.40
2023-01-13T16:53:12.445Z,5.90
2023-01-13T16:55:40.948Z,13.63
2023-01-13T16:58:18.076Z,6.80
2023-01-13T17:00:49.003Z,10.90
2023-01-13T17:03:16.930Z,5.87
2023-01-13T17:05:47.479Z,4.27
2023-01-13T17:08:20.343Z,6.17
2023-01-13T17:10:47.689Z,6.20
2023-01-13T17:13:17.926Z,8.30
2023-01-13T17:15:45.710Z,6.00
2023-01-13T17:18:13.515Z,3.07
2023-01-13T17:20:41.087Z,5.90
2023-01-13T17:23:10.561Z,4.43
2023-01-13T17:25:39.511Z,4.93
2023-01-13T17:28:08.829Z,5.40
2023-01-13T17:30:35.757Z,8.87
2023-01-13T17:33:02.710Z,3.67
2023-01-13T17:35:29.507Z,6.73
2023-01-13T17:37:58.822Z,4.47
2023-01-13T17:40:25.700Z,6.73
2023-01-13T17:42:55.023Z,5.17
2023-01-13T17:45:24.179Z,6.33
2023-01-13T17:47:51.010Z,10.33
2023-01-13T17:50:17.970Z,5.80
2023-01-13T17:52:47.285Z,9.40
2023-01-13T17:55:16.679Z,2.60
2023-01-13T17:57:45.575Z,1.43
2023-01-13T18:00:13.230Z,1.60
2023-01-13T18:02:45.615Z,3.50
2023-01-13T18:05:12.712Z,3.87
2023-01-13T18:07:39.632Z,1.90
2023-01-13T18:10:14.371Z,2.20
2023-01-13T18:12:41.355Z,1.23
2023-01-13T18:15:11.181Z,3.77
2023-01-13T18:17:40.562Z,0.60
2023-01-13T18:20:29.406Z,0.90
2023-01-13T18:23:14.633Z,1.37
2023-01-13T18:26:02.644Z,2.53
2023-01-13T18:28:29.501Z,5.13
2023-01-13T18:30:56.619Z,0.80
2023-01-13T18:33:23.890Z,1.20
2023-01-13T18:35:55.458Z,1.90
2023-01-13T18:38:26.297Z,1.87
2023-01-13T18:40:53.155Z,1.37
2023-01-13T18:43:22.358Z,2.27
2023-01-13T18:45:52.948Z,2.30
2023-01-13T18:48:24.911Z,1.47
2023-01-13T18:50:53.953Z,1.47
2023-01-13T18:53:20.832Z,4.27
2023-01-13T18:55:47.648Z,4.57
2023-01-13T18:58:16.767Z,1.60
2023-01-13T19:00:43.566Z,3.43
2023-01-13T19:03:11.755Z,3.07
2023-01-13T19:05:38.702Z,5.17
2023-01-13T19:08:08.401Z,1.13
2023-01-13T19:10:37.580Z,3.50
2023-01-13T19:13:06.568Z,4.07
2023-01-13T19:15:39.383Z,6.73
2023-01-13T19:18:06.272Z,6.27
2023-01-13T19:20:33.113Z,2.30
2023-01-13T19:22:59.961Z,1.60
2023-01-13T19:25:32.076Z,2.00
2023-01-13T19:27:58.944Z,2.60
2023-01-13T19:30:25.800Z,2.60
2023-01-13T19:33:11.244Z,9.33
2023-01-13T19:35:40.156Z,3.23
2023-01-13T19:38:07.333Z,2.70
2023-01-13T19:40:34.205Z,3.20
2023-01-13T19:43:22.065Z,1.70
2023-01-13T19:45:53.651Z,3.23
2023-01-13T19:48:21.235Z,2.77
2023-01-13T19:50:49.101Z,3.40
2023-01-13T19:53:17.972Z,3.03
2023-01-13T19:55:48.329Z,1.77
2023-01-13T19:58:20.582Z,2.23
2023-01-13T20:00:48.388Z,2.87
2023-01-13T20:03:34.392Z,4.50
2023-01-13T20:06:15.277Z,1.20
2023-01-13T20:08:51.436Z,1.57
2023-01-13T20:11:31.744Z,3.43
2023-01-13T20:14:00.432Z,4.77
2023-01-13T20:16:29.041Z,1.90
2023-01-13T20:18:58.691Z,2.00
2023-01-13T20:21:30.024Z,1.43
2023-01-13T20:24:01.516Z,0.90
2023-01-13T20:26:28.360Z,1.13
2023-01-13T20:28:57.312Z,2.30
2023-01-13T20:31:24.202Z,1.10
2023-01-13T20:33:51.115Z,0.93
2023-01-13T20:36:31.444Z,4.07
2023-01-13T20:39:04.550Z,6.63
2023-01-13T20:41:52.696Z,1.00
2023-01-13T20:44:22.071Z,4.93
2023-01-13T20:46:49.186Z,4.07
2023-01-13T20:49:16.382Z,6.40
2023-01-13T20:51:43.322Z,1.30
2023-01-13T20:54:10.355Z,2.83
2023-01-13T20:56:37.544Z,1.60
2023-01-13T20:59:31.046Z,1.13
2023-01-13T21:02:00.283Z,0.60
2023-01-13T21:04:27.301Z,0.93
2023-01-13T21:06:59.737Z,2.67
2023-01-13T21:09:27.285Z,0.80
2023-01-13T21:12:12.647Z,3.33
2023-01-13T21:14:57.876Z,2.83
2023-01-13T21:17:43.202Z,0.87
2023-01-13T21:20:12.598Z,0.80
2023-01-13T21:22:43.815Z,1.63
2023-01-13T21:25:14.086Z,0.60
2023-01-13T21:27:41.461Z,0.70
2023-01-13T21:30:17.837Z,1.40
2023-01-13T21:32:47.784Z,1.27
2023-01-13T21:35:15.110Z,1.77
2023-01-13T21:37:44.190Z,1.60
2023-01-13T21:40:17.245Z,0.70
2023-01-13T21:43:02.358Z,0.70
2023-01-13T21:45:50.232Z,3.53
2023-01-13T21:48:17.098Z,0.93
2023-01-13T21:50:46.949Z,3.23
2023-01-13T21:53:13.888Z,0.80
2023-01-13T21:55:43.536Z,1.50
2023-01-13T21:58:14.688Z,3.40
2023-01-13T22:00:45.383Z,1.57
2023-01-13T22:03:14.447Z,2.50
2023-01-13T22:05:41.666Z,3.20
2023-01-13T22:08:14.265Z,6.00
2023-01-13T22:11:00.242Z,8.37
2023-01-13T22:13:47.736Z,2.00
2023-01-13T22:16:14.989Z,3.07
2023-01-13T22:18:46.428Z,3.80
2023-01-13T22:21:13.339Z,2.60
2023-01-13T22:23:44.738Z,1.57
2023-01-13T22:26:15.020Z,2.10
2023-01-13T22:28:43.137Z,4.63
2023-01-13T22:31:18.292Z,5.53
2023-01-13T22:33:47.092Z,4.03
2023-01-13T22:36:15.468Z,3.77
2023-01-13T22:38:42.309Z,2.67
2023-01-13T22:41:10.562Z,2.10
2023-01-13T22:43:41.056Z,4.33
2023-01-13T22:46:14.987Z,4.60
2023-01-13T22:48:41.938Z,1.00
2023-01-13T22:51:16.894Z,2.97
2023-01-13T22:53:43.853Z,1.67
2023-01-13T22:56:20.466Z,5.20
2023-01-13T22:58:48.916Z,1.60
2023-01-13T23:01:23.477Z,1.43
2023-01-13T23:03:50.629Z,1.47
2023-01-13T23:06:19.836Z,2.53
2023-01-13T23:08:49.344Z,24.10
2023-01-13T23:11:19.327Z,2.97
2023-01-13T23:13:49.056Z,9.30
2023-01-13T23:16:22.076Z,2.53
2023-01-13T23:18:51.486Z,3.03
2023-01-13T23:21:23.033Z,1.57
2023-01-13T23:23:53.053Z,2.50
2023-01-13T23:26:22.471Z,9.20
2023-01-13T23:28:52.069Z,5.30
2023-01-13T23:31:22.787Z,4.00
2023-01-13T23:33:52.350Z,10.13
2023-01-13T23:36:27.355Z,5.23
2023-01-13T23:38:57.373Z,4.83
2023-01-13T23:41:28.590Z,6.70
2023-01-13T23:44:02.029Z,6.97
2023-01-13T23:46:35.472Z,11.80
2023-01-13T23:49:08.166Z,4.63
2023-01-13T23:51:35.433Z,3.33
2023-01-13T23:54:02.362Z,7.07
2023-01-13T23:56:34.992Z,5.50
2023-01-13T23:59:04.574Z,3.90
